CheckWX is a tool to help pilots better visualize weather data.  It is not intended as a substitute for an official pre-flight weather briefing.

07:52:25 UTC

CYXX METAR
Abbotsford Airport
Abbotsford, Canada
Current

52 mins ago

CYXX 290700Z 14002KT 15SM BKN130 BKN140 BKN210 17/13 A2992 RMK AC6AC1CI1 CI TR SLP132 DENSITY ALT 500FT
Observed
May-29 @ 07:00 UTC
Wind
  • 140° at 2 KTS
Visibility
Flight Rules
VFR
Cloud Levels
  • Broken at 13,000' AGL
  • Broken at 14,000' AGL
  • Broken at 21,000' AGL
Temperature
17°C / 63°F
Dewpoint
13°C / 55°F
Humidity
77%
Altimeter
29.92" Hg
Pressure
1013.22 hPa
Previous

2 hours ago

CYXX 290600Z 00000KT 15SM SCT130 BKN240 18/14 A2992 RMK AC4CI2 SLP133 DENSITY ALT 600FT
Observed
May-29 @ 06:00 UTC
Visibility
Flight Rules
VFR
Cloud Levels
  • Scattered at 13,000' AGL
  • Broken at 24,000' AGL
Temperature
18°C / 64°F
Dewpoint
14°C / 57°F
Humidity
78%
Altimeter
29.92" Hg
Pressure
1013.22 hPa
Previous

3 hours ago

CYXX 290500Z 14004KT 15SM BKN130 BKN230 19/14 A2992 RMK AC6CI1 SLP133 DENSITY ALT 800FT
Observed
May-29 @ 05:00 UTC
Wind
  • 140° at 4 KTS
Visibility
Flight Rules
VFR
Cloud Levels
  • Broken at 13,000' AGL
  • Broken at 23,000' AGL
Temperature
19°C / 66°F
Dewpoint
14°C / 57°F
Humidity
73%
Altimeter
29.92" Hg
Pressure
1013.22 hPa